createdAt,value
2023-03-05T00:02:13.628Z,4.00
2023-03-05T00:04:40.667Z,3.42
2023-03-05T00:07:09.865Z,10.57
2023-03-05T00:09:36.870Z,6.05
2023-03-05T00:12:04.369Z,7.93
2023-03-05T00:14:31.502Z,3.70
2023-03-05T00:16:58.615Z,6.82
2023-03-05T00:19:25.780Z,6.00
2023-03-05T00:21:53.045Z,8.50
2023-03-05T00:24:19.998Z,3.85
2023-03-05T00:26:47.532Z,7.45
2023-03-05T00:29:18.928Z,4.03
2023-03-05T00:31:46.447Z,6.50
2023-03-05T00:34:15.790Z,3.33
2023-03-05T00:36:44.760Z,6.65
2023-03-05T00:39:12.556Z,5.22
2023-03-05T00:41:39.811Z,3.63
2023-03-05T00:44:08.572Z,13.27
2023-03-05T00:46:35.908Z,4.60
2023-03-05T00:49:03.171Z,4.13
2023-03-05T00:51:30.311Z,4.82
2023-03-05T00:53:57.430Z,4.00
2023-03-05T00:56:24.658Z,5.03
2023-03-05T00:58:53.478Z,10.80
2023-03-05T01:01:20.658Z,8.35
2023-03-05T01:03:48.024Z,4.20
2023-03-05T01:06:19.113Z,7.45
2023-03-05T01:08:46.200Z,6.80
2023-03-05T01:11:14.398Z,6.43
2023-03-05T01:13:41.685Z,4.55
2023-03-05T01:16:09.045Z,5.30
2023-03-05T01:18:38.992Z,6.28
2023-03-05T01:21:06.680Z,8.30
2023-03-05T01:23:35.838Z,6.47
2023-03-05T01:26:03.940Z,2.58
2023-03-05T01:28:31.159Z,4.55
2023-03-05T01:30:58.476Z,6.75
2023-03-05T01:33:25.670Z,5.35
2023-03-05T01:35:52.762Z,3.83
2023-03-05T01:38:19.894Z,2.75
2023-03-05T01:40:46.825Z,6.47
2023-03-05T01:43:21.144Z,2.70
2023-03-05T01:46:13.159Z,3.63
2023-03-05T01:48:42.675Z,8.50
2023-03-05T01:51:09.806Z,4.60
2023-03-05T01:53:37.225Z,8.73
2023-03-05T01:56:05.061Z,4.82
2023-03-05T01:58:32.778Z,7.63
2023-03-05T02:01:00.279Z,7.43
2023-03-05T02:03:27.416Z,5.60
2023-03-05T02:05:54.412Z,7.80
2023-03-05T02:08:23.030Z,3.33
2023-03-05T02:10:56.915Z,2.38
2023-03-05T02:13:29.790Z,6.35
2023-03-05T02:16:00.247Z,4.05
2023-03-05T02:18:27.987Z,9.02
2023-03-05T02:20:57.957Z,4.65
2023-03-05T02:23:27.541Z,2.78
2023-03-05T02:25:54.597Z,4.05
2023-03-05T02:28:39.192Z,8.57
2023-03-05T02:31:13.081Z,6.63
2023-03-05T02:33:40.222Z,6.53
2023-03-05T02:36:08.316Z,3.47
2023-03-05T02:38:35.780Z,3.40
2023-03-05T02:41:03.053Z,4.53
2023-03-05T02:43:30.547Z,3.05
2023-03-05T02:45:57.578Z,3.38
2023-03-05T02:48:25.002Z,5.35
2023-03-05T02:50:52.555Z,3.40
2023-03-05T02:53:19.924Z,7.93
2023-03-05T02:55:48.331Z,6.03
2023-03-05T02:58:16.545Z,5.57
2023-03-05T03:00:44.724Z,8.18
2023-03-05T03:03:11.816Z,2.50
2023-03-05T03:05:39.027Z,5.97
2023-03-05T03:08:06.273Z,4.30
2023-03-05T03:10:34.254Z,5.90
2023-03-05T03:13:01.293Z,2.50
2023-03-05T03:15:28.403Z,3.67
2023-03-05T03:17:55.815Z,5.55
2023-03-05T03:20:23.647Z,3.05
2023-03-05T03:22:53.694Z,3.20
2023-03-05T03:25:23.193Z,1.48
2023-03-05T03:27:52.694Z,4.43
2023-03-05T03:30:20.029Z,7.75
2023-03-05T03:32:47.100Z,5.20
2023-03-05T03:35:14.440Z,2.53
2023-03-05T03:37:41.449Z,2.03
2023-03-05T03:40:09.221Z,6.15
2023-03-05T03:42:36.502Z,4.07
2023-03-05T03:45:04.041Z,1.48
2023-03-05T03:47:31.537Z,4.40
2023-03-05T03:49:59.306Z,1.58
2023-03-05T03:52:26.958Z,3.00
2023-03-05T03:54:56.123Z,5.57
2023-03-05T03:57:23.125Z,6.25
2023-03-05T03:59:51.068Z,3.08
2023-03-05T04:02:18.655Z,4.15
2023-03-05T04:04:46.073Z,5.10
2023-03-05T04:07:13.284Z,4.05
2023-03-05T04:09:40.705Z,3.25
2023-03-05T04:12:08.021Z,2.03
2023-03-05T04:14:35.402Z,2.90
2023-03-05T04:17:02.793Z,2.85
2023-03-05T04:19:31.048Z,4.43
2023-03-05T04:21:59.186Z,1.00
2023-03-05T04:24:26.672Z,1.95
2023-03-05T04:26:53.583Z,2.38
2023-03-05T04:29:20.520Z,1.27
2023-03-05T04:31:47.537Z,0.85
2023-03-05T04:34:14.832Z,8.45
2023-03-05T04:36:42.086Z,2.67
2023-03-05T04:39:09.093Z,3.60
2023-03-05T04:41:36.019Z,1.38
2023-03-05T04:44:03.641Z,5.38
2023-03-05T04:46:30.943Z,0.38
2023-03-05T04:48:58.638Z,3.30
2023-03-05T04:51:26.042Z,0.75
2023-03-05T04:53:53.038Z,2.10
2023-03-05T04:56:20.029Z,3.92
2023-03-05T04:58:47.620Z,2.30
2023-03-05T05:01:14.741Z,1.25
2023-03-05T05:03:41.701Z,5.35
2023-03-05T05:06:08.682Z,1.60
2023-03-05T05:08:37.095Z,5.28
2023-03-05T05:11:06.448Z,4.75
2023-03-05T05:13:34.462Z,2.50
2023-03-05T05:16:01.697Z,2.92
2023-03-05T05:18:28.825Z,3.35
2023-03-05T05:20:55.794Z,3.40
2023-03-05T05:23:22.938Z,4.93
2023-03-05T05:26:00.342Z,3.13
2023-03-05T05:28:28.033Z,0.43
2023-03-05T05:30:55.683Z,2.47
2023-03-05T05:33:23.399Z,1.60
2023-03-05T05:35:51.042Z,1.00
2023-03-05T05:38:19.046Z,5.00
2023-03-05T05:40:46.013Z,3.90
2023-03-05T05:43:13.046Z,2.78
2023-03-05T05:45:40.152Z,2.97
2023-03-05T05:48:07.630Z,1.30
2023-03-05T05:50:34.689Z,4.40
2023-03-05T05:53:01.981Z,2.60
2023-03-05T05:55:28.990Z,6.05
2023-03-05T05:57:56.341Z,3.25
2023-03-05T06:00:23.521Z,8.43
2023-03-05T06:02:50.506Z,3.90
2023-03-05T06:05:17.636Z,6.97
2023-03-05T06:07:44.760Z,3.17
2023-03-05T06:10:11.909Z,4.95
2023-03-05T06:12:39.313Z,6.38
2023-03-05T06:15:07.215Z,7.85
2023-03-05T06:17:34.267Z,2.67
2023-03-05T06:20:01.735Z,4.13
2023-03-05T06:22:28.868Z,5.68
2023-03-05T06:24:56.517Z,8.68
2023-03-05T06:27:23.591Z,6.40
2023-03-05T06:29:54.037Z,3.42
2023-03-05T06:32:21.185Z,6.25
2023-03-05T06:34:48.494Z,4.70
2023-03-05T06:37:15.755Z,4.75
2023-03-05T06:39:42.980Z,3.10
2023-03-05T06:42:10.655Z,6.00
2023-03-05T06:44:41.464Z,4.95
2023-03-05T06:47:10.978Z,6.22
2023-03-05T06:49:39.395Z,3.03
2023-03-05T06:52:11.508Z,6.85
2023-03-05T06:54:38.531Z,4.93
2023-03-05T06:57:05.553Z,2.72
2023-03-05T06:59:32.631Z,3.08
2023-03-05T07:01:59.755Z,5.93
2023-03-05T07:04:26.811Z,6.40
2023-03-05T07:06:53.931Z,1.77
2023-03-05T07:09:20.998Z,3.95
2023-03-05T07:11:48.013Z,4.20
2023-03-05T07:14:15.566Z,3.03
2023-03-05T07:16:42.822Z,4.13
2023-03-05T07:19:11.820Z,3.20
2023-03-05T07:21:40.045Z,0.98
2023-03-05T07:24:08.402Z,2.30
2023-03-05T07:26:35.516Z,6.45
2023-03-05T07:29:03.921Z,2.95
2023-03-05T07:31:32.433Z,10.82
2023-03-05T07:34:01.934Z,33.28
2023-03-05T07:36:30.933Z,52.47
2023-03-05T07:38:58.170Z,16.55
2023-03-05T07:41:25.584Z,32.97
2023-03-05T07:43:55.830Z,140.43
2023-03-05T07:46:27.332Z,50.85
2023-03-05T07:48:55.238Z,15.30
2023-03-05T07:51:23.394Z,4.15
2023-03-05T07:53:52.118Z,5.95
2023-03-05T07:56:37.361Z,3.72
2023-03-05T07:59:11.182Z,2.65
2023-03-05T08:01:38.760Z,1.65
2023-03-05T08:04:06.992Z,1.65
2023-03-05T08:06:34.279Z,3.67
2023-03-05T08:09:01.755Z,1.15
2023-03-05T08:11:29.080Z,1.63
2023-03-05T08:13:59.738Z,4.68
2023-03-05T08:16:27.303Z,2.13
2023-03-05T08:18:57.727Z,0.93
2023-03-05T08:21:29.522Z,4.82
2023-03-05T08:23:57.659Z,1.27
2023-03-05T08:26:26.874Z,0.38
2023-03-05T08:28:54.076Z,0.85
2023-03-05T08:31:23.515Z,0.70
2023-03-05T08:33:52.303Z,1.25
2023-03-05T08:36:19.525Z,2.40
2023-03-05T08:38:48.513Z,1.33
2023-03-05T08:41:17.151Z,0.85
2023-03-05T08:43:44.800Z,0.43
2023-03-05T08:46:13.434Z,1.23
2023-03-05T08:48:41.040Z,0.70
2023-03-05T08:51:10.037Z,3.30
2023-03-05T08:53:37.149Z,1.20
2023-03-05T08:56:04.445Z,2.97
2023-03-05T08:58:31.797Z,3.25
2023-03-05T09:00:58.858Z,2.15
2023-03-05T09:03:26.276Z,2.53
2023-03-05T09:05:53.586Z,3.13
2023-03-05T09:08:21.266Z,1.42
2023-03-05T09:10:48.227Z,2.25
2023-03-05T09:13:15.326Z,4.03
2023-03-05T09:15:42.378Z,2.30
2023-03-05T09:18:09.764Z,4.40
2023-03-05T09:20:37.444Z,3.50
2023-03-05T09:23:05.084Z,0.98
2023-03-05T09:25:32.140Z,2.25
2023-03-05T09:27:59.109Z,2.63
2023-03-05T09:30:26.176Z,4.38
2023-03-05T09:32:53.493Z,1.00
2023-03-05T09:35:20.801Z,4.82
2023-03-05T09:37:48.149Z,3.00
2023-03-05T09:40:19.781Z,2.33
2023-03-05T09:43:23.869Z,3.85
2023-03-05T09:46:00.013Z,2.05
2023-03-05T09:48:39.376Z,1.48
2023-03-05T09:51:16.878Z,2.15
2023-03-05T09:53:50.768Z,2.75
2023-03-05T09:56:26.635Z,2.85
2023-03-05T09:58:57.961Z,7.90
2023-03-05T10:01:42.244Z,2.80
2023-03-05T10:04:09.332Z,4.72
2023-03-05T10:06:44.144Z,2.70
2023-03-05T10:09:11.248Z,4.32
2023-03-05T10:11:49.608Z,2.20
2023-03-05T10:14:28.059Z,5.28
2023-03-05T10:17:19.488Z,4.28
2023-03-05T10:20:16.203Z,2.58
2023-03-05T10:23:13.423Z,1.75
2023-03-05T10:26:11.146Z,1.15
2023-03-05T10:28:55.275Z,6.97
2023-03-05T10:32:21.147Z,3.47
2023-03-05T10:35:26.366Z,3.03
2023-03-05T10:38:05.297Z,3.00
2023-03-05T10:40:48.752Z,2.05
2023-03-05T10:43:35.132Z,1.90
2023-03-05T10:46:04.167Z,5.43
2023-03-05T10:48:42.942Z,4.53
2023-03-05T10:51:19.316Z,2.15
2023-03-05T10:53:52.271Z,3.40
2023-03-05T10:56:22.993Z,3.05
2023-03-05T10:58:52.161Z,1.67
2023-03-05T11:01:23.724Z,4.57
2023-03-05T11:04:05.682Z,3.33
2023-03-05T11:06:43.309Z,5.85
2023-03-05T11:09:29.277Z,3.63
2023-03-05T11:12:08.889Z,4.07
2023-03-05T11:14:38.904Z,3.15
2023-03-05T11:17:27.933Z,2.00
2023-03-05T11:19:57.131Z,3.03
2023-03-05T11:22:25.531Z,3.15
2023-03-05T11:25:18.926Z,2.75
2023-03-05T11:27:52.449Z,1.90
2023-03-05T11:30:31.962Z,3.03
2023-03-05T11:33:22.834Z,7.13
2023-03-05T11:35:51.770Z,6.00
2023-03-05T11:38:27.928Z,2.90
2023-03-05T11:40:57.297Z,1.95
2023-03-05T11:43:26.875Z,2.28
2023-03-05T11:45:59.735Z,3.35
2023-03-05T11:48:37.619Z,2.97
2023-03-05T11:51:33.011Z,4.28
2023-03-05T11:54:06.118Z,1.83
2023-03-05T11:56:42.063Z,4.07
2023-03-05T11:59:18.300Z,3.95
2023-03-05T12:01:48.649Z,4.90
2023-03-05T12:04:17.676Z,3.58
2023-03-05T12:06:47.115Z,3.17
2023-03-05T12:09:20.042Z,5.15
2023-03-05T12:11:50.374Z,7.38
2023-03-05T12:14:46.202Z,2.88
2023-03-05T12:17:28.015Z,8.98
2023-03-05T12:20:27.891Z,9.10
2023-03-05T12:22:56.752Z,10.55
2023-03-05T12:25:50.088Z,6.53
2023-03-05T12:28:34.048Z,9.15
2023-03-05T12:31:03.868Z,3.90
2023-03-05T12:33:44.195Z,5.00
2023-03-05T12:36:23.545Z,4.60
2023-03-05T12:38:57.871Z,4.43
2023-03-05T12:41:26.927Z,5.90
2023-03-05T12:44:07.294Z,6.75
2023-03-05T12:46:35.840Z,8.35
2023-03-05T12:49:18.205Z,11.80
2023-03-05T12:51:48.123Z,5.00
2023-03-05T12:54:39.656Z,12.25
2023-03-05T12:57:24.786Z,10.23
2023-03-05T13:00:14.070Z,4.97
2023-03-05T13:02:46.553Z,6.72
2023-03-05T13:05:31.655Z,7.38
2023-03-05T13:08:11.017Z,8.03
2023-03-05T13:10:38.375Z,8.88
2023-03-05T13:13:05.508Z,9.48
2023-03-05T13:15:33.610Z,7.72
2023-03-05T13:18:03.656Z,9.25
2023-03-05T13:20:37.710Z,7.93
2023-03-05T13:23:05.747Z,9.82
2023-03-05T13:25:32.738Z,7.70
2023-03-05T13:28:12.262Z,6.63
2023-03-05T13:30:39.811Z,7.22
2023-03-05T13:33:14.755Z,6.63
2023-03-05T13:35:46.843Z,5.57
2023-03-05T13:38:36.096Z,7.80
2023-03-05T13:41:24.260Z,9.05
2023-03-05T13:43:59.951Z,7.57
2023-03-05T13:46:39.037Z,7.75
2023-03-05T13:49:27.078Z,7.85
2023-03-05T13:51:57.239Z,6.82
2023-03-05T13:54:27.236Z,11.80
2023-03-05T13:57:01.894Z,5.63
2023-03-05T13:59:31.938Z,7.70
2023-03-05T14:02:01.533Z,5.35
2023-03-05T14:04:37.569Z,7.25
2023-03-05T14:07:37.985Z,6.03
2023-03-05T14:10:25.181Z,7.18
2023-03-05T14:12:52.305Z,7.47
2023-03-05T14:15:35.235Z,9.50
2023-03-05T14:18:12.777Z,9.63
2023-03-05T14:21:07.423Z,11.95
2023-03-05T14:23:34.557Z,9.05
2023-03-05T14:26:30.907Z,7.60
2023-03-05T14:29:04.521Z,6.63
2023-03-05T14:31:54.981Z,12.18
2023-03-05T14:34:25.139Z,9.00
2023-03-05T14:36:54.739Z,11.20
2023-03-05T14:39:28.842Z,10.77
2023-03-05T14:41:56.011Z,9.70
2023-03-05T14:44:25.632Z,8.85
2023-03-05T14:46:52.554Z,8.50
2023-03-05T14:49:19.548Z,10.88
2023-03-05T14:51:47.132Z,10.48
2023-03-05T14:54:23.965Z,13.10
2023-03-05T14:56:51.043Z,12.55
2023-03-05T14:59:19.593Z,10.73
2023-03-05T15:01:46.665Z,11.05
2023-03-05T15:04:18.688Z,8.45
2023-03-05T15:06:50.804Z,11.60
2023-03-05T15:09:19.892Z,13.95
2023-03-05T15:11:47.592Z,11.80
2023-03-05T15:14:14.672Z,13.88
2023-03-05T15:16:44.217Z,14.82
2023-03-05T15:19:14.603Z,11.88
2023-03-05T15:21:41.825Z,12.70
2023-03-05T15:24:11.304Z,12.80
2023-03-05T15:26:39.145Z,12.52
2023-03-05T15:29:06.165Z,11.10
2023-03-05T15:31:38.815Z,15.32
2023-03-05T15:34:06.419Z,14.32
2023-03-05T15:36:33.855Z,9.98
2023-03-05T15:39:01.048Z,11.13
2023-03-05T15:41:28.097Z,12.40
2023-03-05T15:43:55.067Z,14.25
2023-03-05T15:46:22.165Z,10.82
2023-03-05T15:48:50.398Z,11.65
2023-03-05T15:51:18.419Z,14.48
2023-03-05T15:53:46.462Z,11.27
2023-03-05T15:56:18.047Z,11.02
2023-03-05T15:58:45.667Z,13.75
2023-03-05T16:01:13.434Z,16.45
2023-03-05T16:03:40.478Z,12.45
2023-03-05T16:06:09.415Z,10.23
2023-03-05T16:08:36.905Z,14.77
2023-03-05T16:11:04.522Z,12.18
2023-03-05T16:13:32.836Z,15.00
2023-03-05T16:16:00.743Z,10.90
2023-03-05T16:18:30.026Z,9.23
2023-03-05T16:20:57.625Z,11.40
2023-03-05T16:23:24.672Z,16.58
2023-03-05T16:25:52.014Z,13.63
2023-03-05T16:28:19.434Z,16.52
2023-03-05T16:30:56.034Z,17.50
2023-03-05T16:33:25.085Z,20.48
2023-03-05T16:36:21.243Z,13.70
2023-03-05T16:41:17.760Z,15.70
2023-03-05T16:43:45.544Z,15.88
2023-03-05T16:46:14.914Z,14.43
2023-03-05T16:48:45.191Z,15.70
2023-03-05T16:51:12.928Z,16.33
2023-03-05T16:53:40.740Z,14.40
2023-03-05T16:56:09.504Z,15.63
2023-03-05T16:58:38.945Z,17.33
2023-03-05T17:01:18.131Z,13.07
2023-03-05T17:03:48.844Z,13.50
2023-03-05T17:06:22.367Z,10.70
2023-03-05T17:08:50.344Z,12.48
2023-03-05T17:11:17.423Z,14.40
2023-03-05T17:13:48.195Z,13.18
2023-03-05T17:16:18.126Z,12.10
2023-03-05T17:18:45.341Z,12.75
2023-03-05T17:21:12.485Z,14.68
2023-03-05T17:23:40.062Z,14.68
2023-03-05T17:26:12.997Z,12.10
2023-03-05T17:28:40.662Z,17.13
2023-03-05T17:31:08.144Z,14.25
2023-03-05T17:33:35.889Z,13.68
2023-03-05T17:36:03.676Z,18.33
2023-03-05T17:38:31.202Z,14.85
2023-03-05T17:40:58.355Z,14.38
2023-03-05T17:43:25.530Z,18.67
2023-03-05T17:45:52.668Z,14.50
2023-03-05T17:48:19.798Z,19.77
2023-03-05T17:50:46.919Z,19.08
2023-03-05T17:53:14.301Z,18.95
2023-03-05T17:55:41.301Z,17.08
2023-03-05T17:58:08.991Z,20.33
2023-03-05T18:00:36.373Z,23.40
2023-03-05T18:03:04.197Z,19.70
2023-03-05T18:05:31.898Z,20.55
2023-03-05T18:08:00.204Z,18.42
2023-03-05T18:10:28.484Z,19.00
2023-03-05T18:12:58.687Z,16.67
2023-03-05T18:15:27.767Z,16.42
2023-03-05T18:17:55.255Z,15.57
2023-03-05T18:20:32.778Z,16.63
2023-03-05T18:23:01.661Z,18.67
2023-03-05T18:25:32.991Z,22.95
2023-03-05T18:28:01.700Z,17.77
2023-03-05T18:30:30.178Z,22.83
2023-03-05T18:32:57.709Z,20.50
2023-03-05T18:35:24.830Z,25.67
2023-03-05T18:37:52.162Z,18.95
2023-03-05T18:40:22.554Z,21.58
2023-03-05T18:42:50.193Z,20.25
2023-03-05T18:45:19.621Z,24.95
2023-03-05T18:47:48.103Z,18.23
2023-03-05T18:50:18.887Z,18.38
2023-03-05T18:52:46.500Z,21.10
2023-03-05T18:55:18.787Z,25.55
2023-03-05T18:57:46.295Z,20.20
2023-03-05T19:00:23.334Z,17.77
2023-03-05T19:02:53.312Z,21.10
2023-03-05T19:05:20.874Z,16.33
2023-03-05T19:07:48.867Z,19.40
2023-03-05T19:10:19.818Z,17.75
2023-03-05T19:13:43.057Z,15.27
2023-03-05T19:16:14.686Z,17.75
2023-03-05T19:19:27.122Z,20.20
2023-03-05T19:21:59.947Z,22.55
2023-03-05T19:24:31.465Z,17.33
2023-03-05T19:27:01.100Z,15.85
2023-03-05T19:29:33.231Z,18.85
2023-03-05T19:32:00.445Z,18.05
2023-03-05T19:34:27.579Z,20.10
2023-03-05T19:36:54.947Z,19.33
2023-03-05T19:39:23.150Z,16.17
2023-03-05T19:41:50.311Z,17.95
2023-03-05T19:44:17.400Z,17.73
2023-03-05T19:46:44.581Z,17.30
2023-03-05T19:49:11.596Z,20.70
2023-03-05T19:51:40.769Z,17.73
2023-03-05T19:54:08.026Z,15.50
2023-03-05T19:56:40.342Z,12.10
2023-03-05T19:59:07.751Z,13.50
2023-03-05T20:01:35.172Z,12.52
2023-03-05T20:04:04.857Z,20.02
2023-03-05T20:06:33.055Z,17.15
2023-03-05T20:09:00.554Z,14.63
2023-03-05T20:11:28.343Z,15.23
2023-03-05T20:13:56.126Z,12.32
2023-03-05T20:16:29.849Z,14.27
2023-03-05T20:18:58.713Z,13.27
2023-03-05T20:21:29.485Z,14.77
2023-03-05T20:24:09.190Z,16.70
2023-03-05T20:26:39.189Z,14.15
2023-03-05T20:29:07.032Z,12.27
2023-03-05T20:31:37.394Z,11.10
2023-03-05T20:34:11.655Z,13.57
2023-03-05T20:36:39.091Z,15.65
2023-03-05T20:39:07.270Z,13.55
2023-03-05T20:41:36.393Z,12.27
2023-03-05T20:44:04.057Z,15.48
2023-03-05T20:46:33.976Z,12.02
2023-03-05T20:49:03.668Z,12.18
2023-03-05T20:51:35.179Z,11.13
2023-03-05T20:54:06.297Z,15.60
2023-03-05T20:56:35.279Z,14.40
2023-03-05T20:59:05.003Z,12.98
2023-03-05T21:01:34.425Z,18.15
2023-03-05T21:04:02.651Z,11.77
2023-03-05T21:06:31.050Z,13.10
2023-03-05T21:08:58.438Z,13.85
2023-03-05T21:11:25.713Z,10.77
2023-03-05T21:13:52.726Z,12.55
2023-03-05T21:16:23.245Z,11.65
2023-03-05T21:18:51.521Z,11.50
2023-03-05T21:21:18.934Z,15.00
2023-03-05T21:23:47.260Z,20.55
2023-03-05T21:26:14.876Z,16.50
2023-03-05T21:28:42.372Z,15.00
2023-03-05T21:31:15.315Z,13.95
2023-03-05T21:33:42.482Z,10.90
2023-03-05T21:36:10.343Z,12.73
2023-03-05T21:38:37.815Z,14.57
2023-03-05T21:41:05.855Z,17.50
2023-03-05T21:43:33.103Z,14.55
2023-03-05T21:46:03.431Z,13.95
2023-03-05T21:48:31.601Z,19.83
2023-03-05T21:50:59.383Z,15.38
2023-03-05T21:53:26.856Z,13.57
2023-03-05T21:56:31.348Z,16.63
2023-03-05T21:58:58.578Z,15.40
2023-03-05T22:01:25.563Z,15.65
2023-03-05T22:03:53.986Z,18.52
2023-03-05T22:06:21.548Z,16.17
2023-03-05T22:08:48.926Z,18.10
2023-03-05T22:11:17.962Z,15.77
2023-03-05T22:13:45.349Z,13.98
2023-03-05T22:16:20.060Z,17.42
2023-03-05T22:18:47.159Z,23.13
2023-03-05T22:21:26.977Z,16.65
2023-03-05T22:23:57.499Z,18.92
2023-03-05T22:26:27.005Z,15.88
2023-03-05T22:28:53.962Z,18.73
2023-03-05T22:31:26.541Z,14.90
2023-03-05T22:33:53.951Z,14.63
2023-03-05T22:36:21.001Z,15.25
2023-03-05T22:38:48.241Z,14.75
2023-03-05T22:41:19.844Z,13.20
2023-03-05T22:43:48.543Z,14.60
2023-03-05T22:46:18.981Z,15.60
2023-03-05T22:48:46.603Z,13.82
2023-03-05T22:51:14.911Z,11.88
2023-03-05T22:53:42.996Z,15.25
2023-03-05T22:56:20.425Z,13.65
2023-03-05T22:58:47.846Z,14.45
2023-03-05T23:01:22.665Z,13.57
2023-03-05T23:05:00.517Z,14.30
2023-03-05T23:07:31.473Z,16.92
2023-03-05T23:10:05.858Z,12.07
2023-03-05T23:12:35.310Z,9.97
2023-03-05T23:15:05.653Z,8.77
2023-03-05T23:17:32.734Z,9.75
2023-03-05T23:19:59.748Z,9.45
2023-03-05T23:22:26.897Z,11.30
2023-03-05T23:24:54.102Z,10.38
2023-03-05T23:27:21.208Z,14.25
2023-03-05T23:30:22.795Z,12.18
2023-03-05T23:32:56.173Z,13.82
2023-03-05T23:35:28.898Z,14.90
2023-03-05T23:37:58.071Z,16.92
2023-03-05T23:40:31.229Z,21.70
2023-03-05T23:42:58.379Z,23.52
2023-03-05T23:45:26.533Z,20.95
2023-03-05T23:47:53.589Z,20.92
2023-03-05T23:50:23.432Z,26.17
2023-03-05T23:52:51.275Z,28.67
2023-03-05T23:55:24.504Z,24.98
2023-03-05T23:57:52.205Z,31.35
